createdAt,value
2024-02-26T00:01:37.653Z,3.90
2024-02-26T00:04:25.062Z,3.65
2024-02-26T00:07:12.741Z,4.85
2024-02-26T00:10:00.527Z,4.93
2024-02-26T00:12:49.376Z,4.15
2024-02-26T00:15:36.935Z,8.07
2024-02-26T00:18:24.707Z,8.45
2024-02-26T00:21:12.880Z,6.72
2024-02-26T00:24:00.991Z,5.55
2024-02-26T00:26:54.769Z,6.82
2024-02-26T00:29:42.254Z,7.18
2024-02-26T00:32:29.493Z,4.40
2024-02-26T00:35:18.296Z,2.90
2024-02-26T00:38:06.774Z,4.72
2024-02-26T00:40:54.754Z,5.03
2024-02-26T00:43:43.736Z,4.75
2024-02-26T00:46:31.164Z,3.00
2024-02-26T00:49:18.848Z,7.90
2024-02-26T00:52:06.393Z,2.92
2024-02-26T00:54:54.314Z,4.53
2024-02-26T00:57:42.177Z,4.97
2024-02-26T01:00:30.265Z,4.65
2024-02-26T01:03:21.199Z,5.22
2024-02-26T01:06:08.607Z,4.28
2024-02-26T01:08:55.961Z,4.22
2024-02-26T01:11:43.453Z,3.30
2024-02-26T01:14:31.464Z,5.50
2024-02-26T01:17:19.529Z,4.90
2024-02-26T01:20:07.217Z,4.97
2024-02-26T01:22:54.517Z,6.00
2024-02-26T01:25:41.789Z,8.05
2024-02-26T01:28:30.285Z,5.03
2024-02-26T01:31:17.616Z,6.60
2024-02-26T01:34:05.553Z,3.03
2024-02-26T01:36:53.066Z,2.63
2024-02-26T01:39:42.952Z,3.13
2024-02-26T01:42:35.286Z,2.55
2024-02-26T01:45:25.618Z,2.58
2024-02-26T01:48:13.903Z,1.67
2024-02-26T01:51:01.777Z,2.08
2024-02-26T01:53:49.739Z,1.73
2024-02-26T01:56:39.437Z,1.40
2024-02-26T01:59:28.222Z,1.35
2024-02-26T02:02:17.189Z,3.65
2024-02-26T02:05:05.872Z,1.30
2024-02-26T02:07:54.106Z,2.25
2024-02-26T02:10:43.453Z,1.38
2024-02-26T02:13:30.891Z,1.10
2024-02-26T02:16:20.675Z,0.80
2024-02-26T02:19:08.029Z,0.95
2024-02-26T02:21:55.378Z,0.90
2024-02-26T02:24:42.619Z,1.70
2024-02-26T02:27:30.839Z,2.55
2024-02-26T02:30:18.506Z,1.30
2024-02-26T02:33:06.244Z,1.10
2024-02-26T02:35:55.391Z,8.55
2024-02-26T02:38:52.672Z,2.45
2024-02-26T02:41:40.369Z,1.00
2024-02-26T02:44:28.350Z,1.85
2024-02-26T02:47:15.663Z,1.42
2024-02-26T02:50:04.354Z,1.40
2024-02-26T02:52:51.589Z,1.00
2024-02-26T02:55:39.094Z,0.90
2024-02-26T02:58:27.803Z,1.20
2024-02-26T03:01:15.181Z,3.15
2024-02-26T03:04:02.788Z,1.45
2024-02-26T03:06:50.297Z,2.05
2024-02-26T03:09:37.769Z,1.02
2024-02-26T03:12:26.086Z,0.90
2024-02-26T03:15:13.646Z,0.90
2024-02-26T03:18:00.998Z,0.93
2024-02-26T03:20:48.342Z,0.80
2024-02-26T03:23:37.809Z,1.02
2024-02-26T03:26:25.017Z,2.20
2024-02-26T03:29:12.164Z,0.80
2024-02-26T03:31:59.515Z,1.02
2024-02-26T03:34:46.990Z,1.10
2024-02-26T03:37:34.798Z,1.20
2024-02-26T03:40:22.344Z,2.25
2024-02-26T03:43:09.645Z,1.10
2024-02-26T03:45:58.101Z,1.25
2024-02-26T03:48:46.099Z,1.25
2024-02-26T03:51:34.193Z,1.20
2024-02-26T03:54:22.761Z,1.45
2024-02-26T03:57:10.258Z,1.17
2024-02-26T03:59:58.031Z,1.30
2024-02-26T04:02:45.578Z,1.15
2024-02-26T04:05:33.043Z,1.75
2024-02-26T04:08:20.668Z,1.23
2024-02-26T04:11:08.983Z,2.33
2024-02-26T04:13:58.018Z,1.30
2024-02-26T04:16:45.239Z,2.28
2024-02-26T04:19:33.668Z,1.50
2024-02-26T04:22:20.900Z,4.05
2024-02-26T04:25:08.592Z,3.45
2024-02-26T04:27:56.016Z,1.98
2024-02-26T04:30:43.576Z,1.40
2024-02-26T04:33:31.065Z,1.20
2024-02-26T04:36:18.605Z,1.20
2024-02-26T04:39:06.400Z,1.30
2024-02-26T04:41:53.762Z,0.98
2024-02-26T04:44:41.321Z,1.15
2024-02-26T04:47:28.874Z,0.98
2024-02-26T04:50:16.302Z,2.35
2024-02-26T04:53:03.758Z,2.63
2024-02-26T04:55:51.086Z,1.55
2024-02-26T04:58:38.326Z,1.50
2024-02-26T05:01:25.638Z,5.90
2024-02-26T05:04:13.460Z,1.63
2024-02-26T05:07:01.997Z,2.80
2024-02-26T05:09:51.027Z,2.13
2024-02-26T05:12:39.209Z,2.50
2024-02-26T05:15:26.752Z,1.60
2024-02-26T05:18:14.645Z,2.35
2024-02-26T05:21:02.077Z,1.95
2024-02-26T05:23:49.496Z,4.80
2024-02-26T05:26:37.074Z,2.00
2024-02-26T05:29:24.618Z,2.53
2024-02-26T05:32:12.044Z,2.78
2024-02-26T05:34:59.380Z,2.67
2024-02-26T05:37:47.025Z,2.28
2024-02-26T05:40:34.303Z,2.40
2024-02-26T05:43:21.646Z,3.13
2024-02-26T05:46:10.141Z,3.33
2024-02-26T05:48:57.509Z,2.72
2024-02-26T05:51:45.100Z,4.18
2024-02-26T05:54:34.772Z,3.83
2024-02-26T05:57:23.926Z,3.28
2024-02-26T06:00:15.639Z,3.67
2024-02-26T06:03:04.852Z,2.25
2024-02-26T06:05:52.673Z,3.08
2024-02-26T06:08:40.351Z,4.43
2024-02-26T06:11:28.682Z,2.42
2024-02-26T06:14:20.393Z,2.95
2024-02-26T06:17:08.526Z,3.07
2024-02-26T06:19:56.032Z,2.95
2024-02-26T06:22:46.914Z,2.88
2024-02-26T06:25:34.143Z,6.47
2024-02-26T06:28:23.055Z,3.95
2024-02-26T06:31:10.488Z,3.28
2024-02-26T06:33:58.412Z,5.25
2024-02-26T06:36:48.474Z,6.72
2024-02-26T06:39:39.811Z,4.95
2024-02-26T06:42:28.220Z,5.43
2024-02-26T06:45:15.886Z,7.03
2024-02-26T06:48:03.925Z,4.30
2024-02-26T06:50:51.610Z,3.33
2024-02-26T06:53:46.421Z,3.00
2024-02-26T06:56:34.909Z,2.22
2024-02-26T06:59:23.006Z,2.60
2024-02-26T07:02:10.331Z,3.15
2024-02-26T07:05:01.739Z,2.78
2024-02-26T07:07:49.058Z,4.30
2024-02-26T07:10:37.526Z,2.90
2024-02-26T07:13:24.938Z,5.78
2024-02-26T07:16:12.306Z,2.45
2024-02-26T07:18:59.657Z,1.73
2024-02-26T07:21:59.846Z,2.63
2024-02-26T07:24:47.557Z,2.65
2024-02-26T07:27:35.572Z,3.03
2024-02-26T07:30:25.645Z,4.93
2024-02-26T07:33:14.284Z,4.13
2024-02-26T07:36:02.045Z,3.78
2024-02-26T07:38:50.576Z,4.30
2024-02-26T07:41:40.273Z,3.22
2024-02-26T07:44:31.078Z,4.13
2024-02-26T07:47:22.656Z,4.22
2024-02-26T07:50:10.491Z,4.20
2024-02-26T07:52:59.979Z,3.25
2024-02-26T07:55:47.687Z,2.35
2024-02-26T07:58:38.915Z,2.03
2024-02-26T08:01:27.848Z,5.43
2024-02-26T08:04:16.578Z,3.35
2024-02-26T08:07:09.102Z,2.30
2024-02-26T08:09:57.828Z,3.30
2024-02-26T08:12:46.575Z,2.15
2024-02-26T08:15:39.033Z,2.72
2024-02-26T08:18:27.900Z,3.33
2024-02-26T08:21:15.367Z,2.95
2024-02-26T08:24:04.709Z,2.35
2024-02-26T08:26:52.199Z,3.03
2024-02-26T08:29:41.240Z,5.35
2024-02-26T08:32:30.488Z,5.57
2024-02-26T08:35:18.046Z,1.90
2024-02-26T08:38:06.034Z,2.83
2024-02-26T08:41:01.826Z,2.38
2024-02-26T08:43:50.622Z,1.80
2024-02-26T08:46:39.878Z,3.67
2024-02-26T08:49:29.565Z,2.97
2024-02-26T08:52:17.533Z,4.00
2024-02-26T08:55:06.074Z,3.63
2024-02-26T08:57:53.871Z,3.25
2024-02-26T09:00:44.470Z,2.65
2024-02-26T09:03:32.365Z,3.33
2024-02-26T09:06:24.380Z,1.67
2024-02-26T09:09:12.806Z,1.83
2024-02-26T09:12:00.540Z,2.22
2024-02-26T09:14:48.767Z,1.92
2024-02-26T09:17:37.894Z,2.55
2024-02-26T09:20:28.701Z,2.50
2024-02-26T09:23:16.367Z,1.52
2024-02-26T09:26:04.089Z,1.42
2024-02-26T09:28:51.603Z,1.98
2024-02-26T09:31:41.372Z,1.77
2024-02-26T09:34:29.250Z,3.25
2024-02-26T09:37:21.707Z,1.48
2024-02-26T09:40:13.235Z,3.03
2024-02-26T09:43:06.367Z,1.58
2024-02-26T09:45:55.364Z,4.35
2024-02-26T09:48:50.994Z,2.17
2024-02-26T09:51:40.221Z,1.88
2024-02-26T09:54:34.775Z,1.73
2024-02-26T09:57:25.874Z,2.63
2024-02-26T10:00:23.857Z,2.70
2024-02-26T10:03:17.147Z,1.17
2024-02-26T10:06:10.132Z,1.00
2024-02-26T10:09:01.016Z,7.55
2024-02-26T10:11:51.267Z,3.10
2024-02-26T10:14:38.913Z,3.25
2024-02-26T10:17:29.487Z,1.20
2024-02-26T10:20:23.408Z,1.85
2024-02-26T10:23:14.212Z,1.65
2024-02-26T10:26:04.389Z,2.42
2024-02-26T10:28:55.162Z,2.65
2024-02-26T10:31:54.185Z,3.08
2024-02-26T10:34:45.240Z,1.35
2024-02-26T10:37:33.138Z,3.42
2024-02-26T10:40:21.163Z,15.65
2024-02-26T10:43:10.265Z,2.70
2024-02-26T10:45:58.114Z,2.28
2024-02-26T10:48:52.948Z,2.30
2024-02-26T10:51:45.462Z,2.03
2024-02-26T10:54:35.008Z,2.95
2024-02-26T10:57:26.822Z,1.33
2024-02-26T11:00:17.193Z,1.70
2024-02-26T11:03:09.165Z,4.45
2024-02-26T11:06:00.350Z,1.67
2024-02-26T11:08:54.098Z,2.83
2024-02-26T11:11:42.806Z,3.42
2024-02-26T11:14:32.491Z,2.13
2024-02-26T11:17:22.294Z,3.22
2024-02-26T11:20:15.045Z,2.90
2024-02-26T11:23:03.004Z,2.53
2024-02-26T11:25:53.663Z,2.08
2024-02-26T11:28:43.983Z,3.40
2024-02-26T11:31:34.874Z,2.55
2024-02-26T11:34:26.981Z,4.43
2024-02-26T11:37:18.887Z,2.97
2024-02-26T11:40:11.173Z,1.83
2024-02-26T11:43:00.748Z,4.20
2024-02-26T11:45:53.917Z,3.72
2024-02-26T11:48:43.243Z,2.20
2024-02-26T11:51:36.482Z,2.65
2024-02-26T11:54:49.930Z,2.28
2024-02-26T11:57:41.520Z,2.67
2024-02-26T12:00:33.864Z,3.37
2024-02-26T12:03:23.777Z,5.68
2024-02-26T12:06:11.767Z,4.00
2024-02-26T12:08:59.085Z,2.33
2024-02-26T12:11:47.245Z,4.60
2024-02-26T12:14:40.223Z,12.68
2024-02-26T12:17:29.227Z,9.90
2024-02-26T12:20:19.357Z,5.60
2024-02-26T12:23:08.704Z,3.20
2024-02-26T12:26:02.220Z,2.45
2024-02-26T12:28:50.602Z,1.85
2024-02-26T12:31:40.427Z,1.70
2024-02-26T12:34:30.042Z,2.15
2024-02-26T12:37:18.714Z,3.85
2024-02-26T12:40:10.792Z,3.70
2024-02-26T12:42:58.189Z,2.20
2024-02-26T12:45:50.921Z,0.80
2024-02-26T12:48:39.579Z,4.60
2024-02-26T12:51:29.488Z,2.45
2024-02-26T12:54:17.262Z,1.00
2024-02-26T12:57:08.666Z,3.38
2024-02-26T12:59:56.301Z,2.22
2024-02-26T13:02:45.776Z,1.40
2024-02-26T13:05:36.566Z,2.35
2024-02-26T13:08:26.584Z,1.77
2024-02-26T13:11:15.336Z,1.13
2024-02-26T13:14:05.484Z,0.70
2024-02-26T13:17:02.616Z,0.77
2024-02-26T13:19:54.453Z,0.95
2024-02-26T13:22:43.274Z,0.50
2024-02-26T13:25:32.887Z,0.63
2024-02-26T13:28:22.595Z,2.75
2024-02-26T13:31:10.832Z,0.70
2024-02-26T13:33:58.747Z,0.50
2024-02-26T13:36:48.182Z,0.30
2024-02-26T13:39:38.935Z,0.93
2024-02-26T13:42:28.413Z,0.50
2024-02-26T13:45:16.085Z,0.40
2024-02-26T13:48:11.779Z,1.33
2024-02-26T13:50:59.995Z,0.40
2024-02-26T13:53:59.803Z,1.65
2024-02-26T13:56:49.263Z,0.43
2024-02-26T13:59:36.875Z,0.68
2024-02-26T14:02:26.179Z,0.38
2024-02-26T14:05:14.147Z,0.38
2024-02-26T14:08:02.041Z,0.50
2024-02-26T14:10:53.443Z,1.33
2024-02-26T14:13:42.692Z,0.50
2024-02-26T14:16:32.747Z,0.90
2024-02-26T14:19:24.999Z,0.52
2024-02-26T14:22:16.530Z,0.60
2024-02-26T14:25:07.587Z,3.13
2024-02-26T14:27:54.973Z,0.43
2024-02-26T14:30:45.288Z,0.55
2024-02-26T14:33:33.439Z,1.55
2024-02-26T14:36:24.419Z,0.50
2024-02-26T14:39:15.016Z,0.40
2024-02-26T14:42:04.299Z,1.30
2024-02-26T14:44:52.247Z,0.75
2024-02-26T14:47:40.152Z,1.90
2024-02-26T14:50:33.598Z,0.73
2024-02-26T14:53:21.901Z,0.40
2024-02-26T14:56:10.822Z,0.45
2024-02-26T14:59:05.214Z,1.85
2024-02-26T15:02:03.562Z,1.00
2024-02-26T15:05:00.543Z,1.08
2024-02-26T15:07:48.358Z,1.35
2024-02-26T15:10:36.404Z,1.27
2024-02-26T15:13:25.445Z,0.82
2024-02-26T15:16:22.540Z,0.60
2024-02-26T15:19:17.919Z,0.60
2024-02-26T15:22:08.003Z,0.70
2024-02-26T15:24:55.936Z,7.32
2024-02-26T15:27:44.872Z,1.45
2024-02-26T15:30:34.221Z,4.07
2024-02-26T15:33:22.634Z,1.60
2024-02-26T15:36:11.698Z,2.35
2024-02-26T15:38:59.648Z,1.50
2024-02-26T15:41:54.466Z,2.25
2024-02-26T15:44:43.880Z,1.00
2024-02-26T15:47:31.603Z,1.38
2024-02-26T15:50:18.962Z,3.78
2024-02-26T15:53:06.272Z,2.53
2024-02-26T15:55:54.097Z,1.75
2024-02-26T15:58:42.097Z,2.10
2024-02-26T16:01:32.344Z,6.30
2024-02-26T16:04:21.326Z,1.75
2024-02-26T16:07:20.416Z,9.70
2024-02-26T16:10:09.213Z,7.13
2024-02-26T16:13:01.992Z,3.55
2024-02-26T16:16:00.506Z,8.45
2024-02-26T16:18:47.951Z,4.78
2024-02-26T16:21:35.538Z,4.18
2024-02-26T16:24:23.569Z,4.78
2024-02-26T16:27:11.052Z,2.47
2024-02-26T16:29:58.796Z,4.03
2024-02-26T16:32:46.188Z,1.92
2024-02-26T16:35:35.068Z,2.20
2024-02-26T16:38:22.879Z,1.60
2024-02-26T16:41:10.909Z,4.63
2024-02-26T16:43:59.403Z,2.50
2024-02-26T16:46:46.973Z,5.50
2024-02-26T16:49:35.324Z,3.90
2024-02-26T16:52:24.091Z,2.50
2024-02-26T16:55:11.834Z,3.83
2024-02-26T16:57:59.592Z,4.43
2024-02-26T17:00:47.169Z,4.18
2024-02-26T17:03:36.269Z,6.47
2024-02-26T17:06:25.418Z,3.78
2024-02-26T17:09:14.211Z,3.97
2024-02-26T17:12:06.154Z,4.72
2024-02-26T17:14:56.652Z,8.73
2024-02-26T17:17:45.873Z,4.47
2024-02-26T17:20:36.887Z,4.20
2024-02-26T17:23:24.638Z,5.50
2024-02-26T17:26:23.611Z,5.85
2024-02-26T17:29:11.631Z,5.93
2024-02-26T17:31:59.014Z,5.65
2024-02-26T17:34:48.682Z,4.72
2024-02-26T17:37:37.453Z,4.30
2024-02-26T17:40:25.381Z,7.68
2024-02-26T17:43:18.302Z,5.97
2024-02-26T17:46:05.865Z,9.63
2024-02-26T17:48:54.661Z,8.55
2024-02-26T17:51:43.397Z,6.45
2024-02-26T17:54:31.256Z,5.63
2024-02-26T17:57:20.152Z,6.32
2024-02-26T18:00:09.184Z,4.40
2024-02-26T18:03:04.445Z,6.60
2024-02-26T18:05:52.425Z,5.90
2024-02-26T18:08:40.581Z,7.43
2024-02-26T18:11:28.079Z,9.65
2024-02-26T18:14:16.940Z,6.43
2024-02-26T18:17:04.921Z,7.53
2024-02-26T18:19:52.512Z,5.38
2024-02-26T18:22:40.981Z,9.80
2024-02-26T18:25:29.035Z,8.05
2024-02-26T18:28:19.693Z,5.68
2024-02-26T18:31:07.935Z,4.97
2024-02-26T18:33:56.688Z,5.38
2024-02-26T18:36:45.974Z,5.30
2024-02-26T18:39:34.443Z,12.25
2024-02-26T18:42:22.944Z,6.63
2024-02-26T18:45:11.497Z,6.00
2024-02-26T18:47:59.844Z,5.97
2024-02-26T18:50:48.691Z,6.72
2024-02-26T18:53:36.770Z,6.20
2024-02-26T18:56:27.366Z,6.65
2024-02-26T18:59:18.835Z,9.40
2024-02-26T19:02:07.914Z,7.95
2024-02-26T19:04:55.981Z,8.02
2024-02-26T19:07:45.130Z,11.48
2024-02-26T19:10:32.785Z,11.43
2024-02-26T19:13:25.490Z,6.13
2024-02-26T19:19:10.023Z,7.00
2024-02-26T19:22:00.218Z,6.95
2024-02-26T19:24:48.322Z,6.93
2024-02-26T19:27:37.746Z,6.45
2024-02-26T19:30:26.123Z,8.15
2024-02-26T19:33:14.874Z,7.13
2024-02-26T19:36:03.735Z,7.05
2024-02-26T19:38:52.453Z,6.60
2024-02-26T19:41:41.245Z,8.98
2024-02-26T19:44:29.941Z,5.15
2024-02-26T19:47:17.741Z,7.30
2024-02-26T19:50:14.032Z,8.38
2024-02-26T19:53:02.797Z,5.40
2024-02-26T19:55:53.967Z,11.68
2024-02-26T19:58:41.776Z,9.65
2024-02-26T20:01:30.344Z,8.95
2024-02-26T20:04:18.678Z,8.57
2024-02-26T20:07:07.314Z,7.68
2024-02-26T20:09:55.852Z,6.85
2024-02-26T20:12:45.078Z,9.30
2024-02-26T20:15:33.374Z,6.20
2024-02-26T20:18:21.130Z,7.35
2024-02-26T20:21:08.764Z,8.70
2024-02-26T20:23:57.338Z,6.88
2024-02-26T20:26:46.526Z,8.95
2024-02-26T20:29:34.735Z,9.40
2024-02-26T20:32:22.507Z,6.95
2024-02-26T20:35:11.152Z,8.75
2024-02-26T20:37:58.899Z,7.55
2024-02-26T20:40:46.241Z,5.90
2024-02-26T20:43:38.287Z,9.80
2024-02-26T20:46:26.281Z,13.52
2024-02-26T20:49:14.276Z,11.55
2024-02-26T20:52:01.738Z,8.77
2024-02-26T20:54:49.400Z,7.65
2024-02-26T20:57:37.474Z,8.18
2024-02-26T21:00:25.277Z,7.25
2024-02-26T21:03:13.717Z,6.65
2024-02-26T21:06:01.735Z,7.15
2024-02-26T21:08:50.332Z,7.60
2024-02-26T21:11:38.695Z,5.75
2024-02-26T21:14:28.740Z,8.90
2024-02-26T21:17:16.125Z,7.13
2024-02-26T21:20:05.923Z,6.35
2024-02-26T21:22:54.778Z,5.20
2024-02-26T21:25:43.501Z,6.75
2024-02-26T21:28:31.204Z,6.43
2024-02-26T21:31:18.992Z,6.47
2024-02-26T21:34:07.353Z,6.85
2024-02-26T21:36:54.980Z,7.88
2024-02-26T21:39:42.707Z,7.50
2024-02-26T21:42:31.134Z,6.53
2024-02-26T21:45:22.704Z,8.23
2024-02-26T21:48:11.229Z,7.20
2024-02-26T21:50:59.049Z,4.40
2024-02-26T21:53:48.945Z,6.40
2024-02-26T21:56:37.829Z,5.40
2024-02-26T21:59:26.320Z,5.05
2024-02-26T22:02:14.910Z,3.75
2024-02-26T22:05:03.483Z,5.70
2024-02-26T22:07:50.960Z,9.02
2024-02-26T22:10:40.225Z,5.70
2024-02-26T22:13:28.322Z,4.85
2024-02-26T22:16:18.018Z,4.25
2024-02-26T22:19:07.657Z,4.90
2024-02-26T22:21:55.610Z,2.95
2024-02-26T22:24:43.378Z,7.32
2024-02-26T22:27:32.171Z,2.65
2024-02-26T22:30:19.803Z,4.07
2024-02-26T22:33:07.947Z,1.90
2024-02-26T22:35:55.635Z,3.80
2024-02-26T22:38:43.372Z,1.67
2024-02-26T22:41:34.373Z,1.67
2024-02-26T22:44:21.644Z,1.67
2024-02-26T22:47:09.405Z,1.35
2024-02-26T22:49:59.522Z,2.08
2024-02-26T22:52:47.251Z,1.95
2024-02-26T22:55:34.719Z,1.70
2024-02-26T22:58:22.374Z,1.58
2024-02-26T23:01:11.689Z,2.40
2024-02-26T23:04:04.409Z,1.67
2024-02-26T23:09:42.021Z,1.88
2024-02-26T23:12:30.461Z,7.32
2024-02-26T23:15:21.838Z,7.43
2024-02-26T23:18:09.744Z,6.18
2024-02-26T23:21:00.969Z,7.63
2024-02-26T23:23:48.655Z,4.97
2024-02-26T23:26:36.306Z,2.58
2024-02-26T23:29:24.020Z,2.55
2024-02-26T23:32:11.614Z,5.13
2024-02-26T23:34:59.093Z,5.72
2024-02-26T23:37:48.330Z,8.65
2024-02-26T23:40:35.854Z,5.60
2024-02-26T23:43:23.349Z,6.95
2024-02-26T23:46:12.306Z,4.20
2024-02-26T23:49:02.262Z,6.32
2024-02-26T23:51:50.115Z,3.00
2024-02-26T23:54:41.378Z,7.57
2024-02-26T23:57:28.789Z,9.13
